createdAt,value
2023-05-06T00:02:00.151Z,100802.44
2023-05-06T00:04:30.702Z,100804.27
2023-05-06T00:07:00.576Z,100798.53
2023-05-06T00:09:30.889Z,100800.59
2023-05-06T00:12:01.222Z,100798.94
2023-05-06T00:14:31.661Z,100795.04
2023-05-06T00:17:01.998Z,100797.70
2023-05-06T00:19:32.998Z,100797.09
2023-05-06T00:22:03.175Z,100799.94
2023-05-06T00:24:33.231Z,100798.52
2023-05-06T00:27:03.374Z,100793.18
2023-05-06T00:29:33.885Z,100795.02
2023-05-06T00:32:04.467Z,100792.56
2023-05-06T00:34:34.732Z,100794.20
2023-05-06T00:37:04.661Z,100801.38
2023-05-06T00:39:36.222Z,100785.36
2023-05-06T00:42:07.136Z,100787.41
2023-05-06T00:44:37.880Z,100785.59
2023-05-06T00:47:08.785Z,100782.70
2023-05-06T00:49:39.954Z,100789.28
2023-05-06T00:52:10.476Z,100780.44
2023-05-06T00:54:41.004Z,100776.96
2023-05-06T00:57:12.327Z,100775.31
2023-05-06T00:59:44.075Z,100777.98
2023-05-06T01:02:13.596Z,100776.96
2023-05-06T01:04:43.741Z,100778.60
2023-05-06T01:07:24.710Z,100774.08
2023-05-06T01:10:01.537Z,100776.74
2023-05-06T01:12:38.180Z,100771.41
2023-05-06T01:15:15.907Z,100779.63
2023-05-06T01:17:49.453Z,100769.14
2023-05-06T01:20:21.847Z,100771.01
2023-05-06T01:22:52.664Z,100772.22
2023-05-06T01:25:23.742Z,100770.58
2023-05-06T01:27:53.913Z,100767.29
2023-05-06T01:30:29.547Z,100765.86
2023-05-06T01:33:05.417Z,100764.22
2023-05-06T01:35:54.378Z,100767.91
2023-05-06T01:38:34.939Z,100766.05
2023-05-06T01:41:06.121Z,100762.36
2023-05-06T01:43:41.734Z,100762.36
2023-05-06T01:46:19.078Z,100760.53
2023-05-06T01:48:53.593Z,100759.50
2023-05-06T01:51:23.850Z,100764.84
2023-05-06T01:53:54.904Z,100763.81
2023-05-06T01:56:26.648Z,100762.36
2023-05-06T01:58:59.299Z,100769.74
2023-05-06T02:01:30.098Z,100761.12
2023-05-06T02:04:01.023Z,100768.50
2023-05-06T02:06:32.274Z,100762.95
2023-05-06T02:09:02.764Z,100764.59
2023-05-06T02:11:33.498Z,100755.98
2023-05-06T02:14:07.114Z,100760.69
2023-05-06T02:16:38.468Z,100761.90
2023-05-06T02:19:08.880Z,100758.42
2023-05-06T02:21:39.298Z,100754.92
2023-05-06T02:24:10.046Z,100758.61
2023-05-06T02:26:40.361Z,100755.14
2023-05-06T02:29:10.676Z,100757.19
2023-05-06T02:31:41.235Z,100756.56
2023-05-06T02:34:11.329Z,100753.28
2023-05-06T02:36:42.066Z,100755.11
2023-05-06T02:39:12.518Z,100751.02
2023-05-06T02:41:42.294Z,100751.20
2023-05-06T02:44:13.221Z,100759.41
2023-05-06T02:46:43.559Z,100749.77
2023-05-06T02:49:14.492Z,100744.84
2023-05-06T02:51:44.607Z,100748.71
2023-05-06T02:54:15.339Z,100751.78
2023-05-06T02:56:46.069Z,100749.11
2023-05-06T02:59:16.537Z,100752.61
2023-05-06T03:01:46.715Z,100754.66
2023-05-06T03:04:16.714Z,100758.75
2023-05-06T03:06:47.150Z,100750.13
2023-05-06T03:09:18.708Z,100754.66
2023-05-06T03:11:49.235Z,100755.68
2023-05-06T03:14:20.158Z,100762.84
2023-05-06T03:16:50.792Z,100756.70
2023-05-06T03:19:22.054Z,100756.70
2023-05-06T03:21:52.190Z,100758.53
2023-05-06T03:24:23.544Z,100763.05
2023-05-06T03:26:54.249Z,100762.22
2023-05-06T03:29:24.979Z,100764.25
2023-05-06T03:31:57.645Z,100768.78
2023-05-06T03:34:28.914Z,100762.83
2023-05-06T03:36:59.840Z,100773.48
2023-05-06T03:39:30.982Z,100774.51
2023-05-06T03:42:01.916Z,100778.19
2023-05-06T03:44:32.442Z,100782.69
2023-05-06T03:47:02.974Z,100788.23
2023-05-06T03:49:33.913Z,100784.94
2023-05-06T03:52:05.439Z,100789.64
2023-05-06T03:54:36.150Z,100794.97
2023-05-06T03:57:06.934Z,100799.47
2023-05-06T03:59:37.861Z,100802.13
2023-05-06T04:02:08.626Z,100802.34
2023-05-06T04:04:39.956Z,100806.83
2023-05-06T04:07:09.859Z,100806.02
2023-05-06T04:09:39.793Z,100808.48
2023-05-06T04:12:11.323Z,100808.30
2023-05-06T04:14:42.052Z,100811.59
2023-05-06T04:17:12.837Z,100811.19
2023-05-06T04:19:43.730Z,100810.59
2023-05-06T04:22:14.200Z,100815.34
2023-05-06T04:24:45.804Z,100820.69
2023-05-06T04:27:17.146Z,100815.39
2023-05-06T04:29:48.085Z,100825.05
2023-05-06T04:32:20.601Z,100823.23
2023-05-06T04:34:51.186Z,100830.03
2023-05-06T04:37:21.859Z,100833.36
2023-05-06T04:39:57.567Z,100827.63
2023-05-06T04:42:29.124Z,100836.06
2023-05-06T04:45:11.643Z,100836.30
2023-05-06T04:47:42.017Z,100836.52
2023-05-06T04:50:15.034Z,100830.59
2023-05-06T04:52:45.368Z,100835.55
2023-05-06T04:55:16.920Z,100835.96
2023-05-06T04:57:50.927Z,100839.03
2023-05-06T05:00:25.901Z,100837.61
2023-05-06T05:02:56.511Z,100840.67
2023-05-06T05:05:27.998Z,100842.72
2023-05-06T05:07:58.774Z,100843.11
2023-05-06T05:10:29.045Z,100844.30
2023-05-06T05:12:59.249Z,100847.58
2023-05-06T05:15:30.161Z,100848.98
2023-05-06T05:18:00.305Z,100851.20
2023-05-06T05:20:30.592Z,100841.71
2023-05-06T05:23:02.976Z,100844.52
2023-05-06T05:25:34.514Z,100836.52
2023-05-06T05:28:05.662Z,100844.67
2023-05-06T05:30:37.015Z,100850.17
2023-05-06T05:33:07.721Z,100850.52
2023-05-06T05:35:38.258Z,100846.11
2023-05-06T05:38:09.033Z,100850.54
2023-05-06T05:40:40.549Z,100851.27
2023-05-06T05:43:11.275Z,100852.20
2023-05-06T05:45:42.540Z,100857.45
2023-05-06T05:48:13.595Z,100857.36
2023-05-06T05:50:44.087Z,100850.02
2023-05-06T05:53:14.215Z,100856.28
2023-05-06T05:55:45.139Z,100846.45
2023-05-06T05:58:15.881Z,100858.88
2023-05-06T06:00:46.407Z,100860.59
2023-05-06T06:03:17.620Z,100863.70
2023-05-06T06:05:48.896Z,100862.10
2023-05-06T06:08:19.848Z,100864.27
2023-05-06T06:10:50.910Z,100870.52
2023-05-06T06:13:25.347Z,100871.59
2023-05-06T06:15:58.423Z,100869.76
2023-05-06T06:18:29.728Z,100865.23
2023-05-06T06:21:00.455Z,100870.64
2023-05-06T06:23:30.572Z,100875.80
2023-05-06T06:26:02.126Z,100873.57
2023-05-06T06:28:32.252Z,100874.86
2023-05-06T06:31:02.357Z,100876.98
2023-05-06T06:33:32.475Z,100875.60
2023-05-06T06:36:02.354Z,100886.01
2023-05-06T06:38:32.520Z,100885.87
2023-05-06T06:41:02.463Z,100877.69
2023-05-06T06:43:32.955Z,100884.81
2023-05-06T06:46:04.976Z,100881.76
2023-05-06T06:48:35.657Z,100880.91
2023-05-06T06:51:06.974Z,100878.91
2023-05-06T06:53:37.111Z,100880.90
2023-05-06T06:56:11.828Z,100877.83
2023-05-06T06:58:41.862Z,100883.16
2023-05-06T07:01:13.041Z,100879.86
2023-05-06T07:03:43.203Z,100869.78
2023-05-06T07:06:14.060Z,100881.31
2023-05-06T07:08:44.788Z,100880.58
2023-05-06T07:11:15.506Z,100887.46
2023-05-06T07:13:46.869Z,100884.11
2023-05-06T07:16:17.051Z,100889.09
2023-05-06T07:18:47.507Z,100892.22
2023-05-06T07:21:17.429Z,100903.89
2023-05-06T07:23:47.970Z,100892.13
2023-05-06T07:26:18.479Z,100896.05
2023-05-06T07:28:50.443Z,100899.39
2023-05-06T07:31:20.832Z,100902.73
2023-05-06T07:33:51.500Z,100906.69
2023-05-06T07:36:23.261Z,100907.09
2023-05-06T07:38:53.995Z,100906.91
2023-05-06T07:41:24.520Z,100902.98
2023-05-06T07:43:55.867Z,100909.81
2023-05-06T07:46:25.046Z,100911.84
2023-05-06T07:48:55.078Z,100913.28
2023-05-06T07:51:26.627Z,100914.75
2023-05-06T07:53:57.367Z,100900.75
2023-05-06T07:56:29.330Z,100909.41
2023-05-06T07:58:59.650Z,100913.47
2023-05-06T08:01:30.789Z,100915.11
2023-05-06T08:04:01.197Z,100909.20
2023-05-06T08:06:32.661Z,100901.73
2023-05-06T08:09:02.579Z,100908.58
2023-05-06T08:11:34.136Z,100904.95
2023-05-06T08:14:05.477Z,100917.74
2023-05-06T08:16:35.159Z,100911.08
2023-05-06T08:19:05.508Z,100919.80
2023-05-06T08:21:37.477Z,100920.97
2023-05-06T08:24:10.031Z,100911.59
2023-05-06T08:26:40.174Z,100918.41
2023-05-06T08:29:10.905Z,100919.84
2023-05-06T08:31:41.473Z,100917.74
2023-05-06T08:34:11.562Z,100919.97
2023-05-06T08:36:43.387Z,100917.10
2023-05-06T08:39:14.858Z,100923.66
2023-05-06T08:41:47.439Z,100926.44
2023-05-06T08:44:23.120Z,100932.71
2023-05-06T08:46:53.819Z,100921.06
2023-05-06T08:49:25.570Z,100923.52
2023-05-06T08:51:56.749Z,100922.20
2023-05-06T08:54:29.105Z,100934.44
2023-05-06T08:57:00.433Z,100920.11
2023-05-06T08:59:32.297Z,100927.73
2023-05-06T09:02:03.582Z,100920.16
2023-05-06T09:04:33.857Z,100939.41
2023-05-06T09:07:04.389Z,100919.94
2023-05-06T09:09:35.946Z,100926.51
2023-05-06T09:12:13.089Z,100921.66
2023-05-06T09:14:43.754Z,100926.82
2023-05-06T09:17:23.269Z,100913.59
2023-05-06T09:19:56.417Z,100916.87
2023-05-06T09:22:28.179Z,100908.48
2023-05-06T09:24:59.380Z,100918.25
2023-05-06T09:27:32.776Z,100918.02
2023-05-06T09:30:04.947Z,100915.33
2023-05-06T09:32:39.068Z,100912.33
2023-05-06T09:35:11.807Z,100906.16
2023-05-06T09:37:42.876Z,100909.67
2023-05-06T09:40:15.360Z,100904.53
2023-05-06T09:42:47.356Z,100906.16
2023-05-06T09:45:18.968Z,100903.98
2023-05-06T09:47:49.019Z,100907.50
2023-05-06T09:50:21.683Z,100895.02
2023-05-06T09:52:52.540Z,100895.84
2023-05-06T09:55:26.089Z,100889.02
2023-05-06T09:57:58.165Z,100889.83
2023-05-06T10:00:31.932Z,100894.16
2023-05-06T10:03:03.289Z,100891.74
2023-05-06T10:05:35.849Z,100889.80
2023-05-06T10:08:09.467Z,100887.59
2023-05-06T10:10:43.123Z,100893.01
2023-05-06T10:13:13.431Z,100891.10
2023-05-06T10:15:45.643Z,100891.88
2023-05-06T10:18:17.680Z,100878.83
2023-05-06T10:20:49.502Z,100885.60
2023-05-06T10:23:26.274Z,100887.73
2023-05-06T10:26:05.941Z,100887.70
2023-05-06T10:28:40.109Z,100881.18
2023-05-06T10:31:13.588Z,100880.89
2023-05-06T10:33:47.740Z,100883.34
2023-05-06T10:36:22.047Z,100886.06
2023-05-06T10:38:55.906Z,100890.63
2023-05-06T10:41:27.712Z,100884.14
2023-05-06T10:43:59.482Z,100887.92
2023-05-06T10:46:32.462Z,100878.44
2023-05-06T10:49:19.498Z,100876.81
2023-05-06T10:52:12.250Z,100877.58
2023-05-06T10:54:52.787Z,100880.27
2023-05-06T10:57:26.333Z,100886.16
2023-05-06T10:59:56.299Z,100880.66
2023-05-06T11:02:31.700Z,100888.21
2023-05-06T11:05:03.094Z,100881.64
2023-05-06T11:07:32.388Z,100885.75
2023-05-06T11:10:04.777Z,100883.34
2023-05-06T11:12:48.933Z,100882.50
2023-05-06T11:15:26.289Z,100880.80
2023-05-06T11:17:56.688Z,100871.24
2023-05-06T11:20:28.328Z,100880.19
2023-05-06T11:22:58.141Z,100892.39
2023-05-06T11:25:42.392Z,100878.84
2023-05-06T11:28:14.094Z,100875.02
2023-05-06T11:30:53.593Z,100877.16
2023-05-06T11:33:27.532Z,100873.88
2023-05-06T11:35:57.354Z,100875.48
2023-05-06T11:38:39.343Z,100871.41
2023-05-06T11:41:09.672Z,100860.00
2023-05-06T11:43:40.171Z,100874.13
2023-05-06T11:46:09.701Z,100869.25
2023-05-06T11:48:39.361Z,100868.95
2023-05-06T11:51:09.968Z,100870.30
2023-05-06T11:53:41.088Z,100874.64
2023-05-06T11:56:12.224Z,100868.90
2023-05-06T11:58:42.958Z,100866.48
2023-05-06T12:01:13.896Z,100873.02
2023-05-06T12:03:44.821Z,100857.22
2023-05-06T12:06:15.154Z,100859.37
2023-05-06T12:08:45.479Z,100863.70
2023-05-06T12:11:16.212Z,100864.45
2023-05-06T12:13:46.947Z,100858.48
2023-05-06T12:16:17.691Z,100859.37
2023-05-06T12:18:48.016Z,100847.95
2023-05-06T12:21:23.823Z,100846.28
2023-05-06T12:23:56.433Z,100851.42
2023-05-06T12:26:27.780Z,100858.22
2023-05-06T12:29:07.940Z,100863.14
2023-05-06T12:31:38.273Z,100857.97
2023-05-06T12:34:08.987Z,100847.08
2023-05-06T12:36:44.701Z,100854.45
2023-05-06T12:39:17.014Z,100855.77
2023-05-06T12:41:48.358Z,100844.36
2023-05-06T12:44:36.715Z,100847.08
2023-05-06T12:47:08.250Z,100843.56
2023-05-06T12:49:47.790Z,100842.16
2023-05-06T12:52:20.036Z,100844.09
2023-05-06T12:54:51.518Z,100846.50
2023-05-06T12:57:23.274Z,100852.47
2023-05-06T12:59:55.849Z,100853.00
2023-05-06T13:02:26.282Z,100853.30
2023-05-06T13:04:56.927Z,100846.81
2023-05-06T13:07:28.652Z,100837.88
2023-05-06T13:09:59.186Z,100836.55
2023-05-06T13:12:29.533Z,100828.34
2023-05-06T13:14:59.832Z,100831.58
2023-05-06T13:17:30.580Z,100823.42
2023-05-06T13:20:05.242Z,100822.54
2023-05-06T13:22:47.253Z,100828.56
2023-05-06T13:25:24.274Z,100826.14
2023-05-06T13:27:55.199Z,100829.66
2023-05-06T13:30:25.481Z,100831.58
2023-05-06T13:32:55.219Z,100826.14
2023-05-06T13:35:25.763Z,100825.89
2023-05-06T13:37:56.292Z,100823.73
2023-05-06T13:40:26.764Z,100818.60
2023-05-06T13:42:56.734Z,100830.59
2023-05-06T13:45:28.291Z,100819.97
2023-05-06T13:47:58.424Z,100819.17
2023-05-06T13:50:28.695Z,100816.48
2023-05-06T13:52:59.051Z,100811.83
2023-05-06T13:55:29.787Z,100818.67
2023-05-06T13:58:00.309Z,100822.71
2023-05-06T14:00:32.418Z,100829.77
2023-05-06T14:03:02.295Z,100830.97
2023-05-06T14:05:33.540Z,100823.73
2023-05-06T14:08:04.082Z,100818.60
2023-05-06T14:10:35.005Z,100832.63
2023-05-06T14:13:07.137Z,100837.56
2023-05-06T14:15:37.692Z,100827.26
2023-05-06T14:18:08.261Z,100824.28
2023-05-06T14:20:38.756Z,100813.17
2023-05-06T14:23:09.273Z,100812.65
2023-05-06T14:25:40.434Z,100810.50
2023-05-06T14:28:12.379Z,100812.12
2023-05-06T14:30:42.668Z,100815.44
2023-05-06T14:33:12.274Z,100810.27
2023-05-06T14:35:43.144Z,100815.97
2023-05-06T14:38:13.671Z,100808.64
2023-05-06T14:40:43.597Z,100809.21
2023-05-06T14:43:14.318Z,100802.48
2023-05-06T14:45:44.869Z,100808.18
2023-05-06T14:48:14.670Z,100806.85
2023-05-06T14:50:44.894Z,100808.20
2023-05-06T14:53:14.815Z,100807.67
2023-05-06T14:55:45.317Z,100801.18
2023-05-06T14:58:15.196Z,100798.23
2023-05-06T15:00:46.588Z,100800.14
2023-05-06T15:03:16.713Z,100802.88
2023-05-06T15:05:47.055Z,100797.45
2023-05-06T15:08:17.593Z,100798.28
2023-05-06T15:10:49.476Z,100808.61
2023-05-06T15:13:19.833Z,100799.13
2023-05-06T15:15:50.795Z,100795.34
2023-05-06T15:18:20.250Z,100791.30
2023-05-06T15:20:52.044Z,100795.66
2023-05-06T15:23:22.981Z,100797.55
2023-05-06T15:25:53.714Z,100789.92
2023-05-06T15:28:24.783Z,100797.00
2023-05-06T15:30:54.988Z,100791.59
2023-05-06T15:33:24.896Z,100798.12
2023-05-06T15:35:55.630Z,100796.77
2023-05-06T15:38:25.473Z,100807.94
2023-05-06T15:40:55.861Z,100803.86
2023-05-06T15:43:26.468Z,100802.00
2023-05-06T15:46:06.545Z,100799.02
2023-05-06T15:48:36.767Z,100797.69
2023-05-06T15:51:07.384Z,100789.81
2023-05-06T15:53:39.927Z,100802.26
2023-05-06T15:56:18.065Z,100798.76
2023-05-06T15:58:49.820Z,100810.14
2023-05-06T16:01:23.869Z,100801.72
2023-05-06T16:04:06.009Z,100807.14
2023-05-06T16:06:36.571Z,100794.41
2023-05-06T16:09:08.525Z,100806.04
2023-05-06T16:11:38.575Z,100798.44
2023-05-06T16:14:08.566Z,100804.68
2023-05-06T16:16:38.488Z,100803.05
2023-05-06T16:19:09.418Z,100811.70
2023-05-06T16:21:39.899Z,100802.44
2023-05-06T16:24:10.461Z,100806.75
2023-05-06T16:26:40.999Z,100813.22
2023-05-06T16:29:11.314Z,100806.71
2023-05-06T16:31:42.203Z,100814.27
2023-05-06T16:34:12.790Z,100820.19
2023-05-06T16:36:43.318Z,100814.73
2023-05-06T16:39:13.635Z,100820.64
2023-05-06T16:41:44.374Z,100817.35
2023-05-06T16:44:14.914Z,100822.18
2023-05-06T16:46:45.619Z,100818.06
2023-05-06T16:49:16.362Z,100822.61
2023-05-06T16:51:46.659Z,100825.53
2023-05-06T16:54:17.009Z,100825.48
2023-05-06T16:56:52.080Z,100817.62
2023-05-06T16:59:23.387Z,100822.16
2023-05-06T17:01:53.231Z,100826.73
2023-05-06T17:04:25.056Z,100824.22
2023-05-06T17:06:55.592Z,100830.66
2023-05-06T17:09:25.709Z,100827.36
2023-05-06T17:11:56.181Z,100830.53
2023-05-06T17:14:26.117Z,100831.55
2023-05-06T17:16:56.131Z,100831.19
2023-05-06T17:19:26.791Z,100833.03
2023-05-06T17:21:57.170Z,100827.23
2023-05-06T17:26:56.535Z,100832.98
2023-05-06T17:29:27.281Z,100833.19
2023-05-06T17:31:57.994Z,100830.66
2023-05-06T17:34:27.917Z,100838.14
2023-05-06T17:36:57.786Z,100837.52
2023-05-06T17:39:28.763Z,100840.41
2023-05-06T17:41:59.088Z,100841.66
2023-05-06T17:44:29.620Z,100855.34
2023-05-06T17:47:00.381Z,100849.31
2023-05-06T17:49:30.664Z,100864.59
2023-05-06T17:52:01.575Z,100859.36
2023-05-06T17:54:34.387Z,100856.81
2023-05-06T17:57:04.707Z,100864.27
2023-05-06T17:59:36.377Z,100863.87
2023-05-06T18:02:09.715Z,100878.08
2023-05-06T18:04:39.981Z,100875.56
2023-05-06T18:07:10.307Z,100873.84
2023-05-06T18:09:40.422Z,100879.38
2023-05-06T18:12:10.540Z,100884.69
2023-05-06T18:14:41.270Z,100894.58
2023-05-06T18:17:12.004Z,100888.27
2023-05-06T18:19:42.737Z,100893.56
2023-05-06T18:22:12.868Z,100893.73
2023-05-06T18:24:43.179Z,100888.47
2023-05-06T18:27:13.307Z,100888.37
2023-05-06T18:29:44.040Z,100884.98
2023-05-06T18:32:14.394Z,100897.55
2023-05-06T18:34:44.895Z,100900.37
2023-05-06T18:37:15.412Z,100901.58
2023-05-06T18:39:45.631Z,100890.94
2023-05-06T18:42:16.056Z,100901.02
2023-05-06T18:44:49.698Z,100901.14
2023-05-06T18:47:20.804Z,100906.66
2023-05-06T18:49:50.716Z,100904.34
2023-05-06T18:52:22.066Z,100900.12
2023-05-06T18:54:52.392Z,100904.01
2023-05-06T18:57:23.132Z,100906.00
2023-05-06T18:59:53.848Z,100912.53
2023-05-06T19:02:24.805Z,100907.48
2023-05-06T19:04:55.545Z,100905.14
2023-05-06T19:07:26.249Z,100911.45
2023-05-06T19:09:57.201Z,100910.73
2023-05-06T19:12:27.726Z,100916.45
2023-05-06T19:14:58.453Z,100912.00
2023-05-06T19:17:29.210Z,100915.61
2023-05-06T19:19:59.925Z,100918.17
2023-05-06T19:22:31.063Z,100910.23
2023-05-06T19:25:01.997Z,100914.64
2023-05-06T19:27:32.124Z,100918.83
2023-05-06T19:30:02.592Z,100914.97
2023-05-06T19:32:33.529Z,100921.25
2023-05-06T19:35:07.433Z,100917.38
2023-05-06T19:37:38.327Z,100919.72
2023-05-06T19:40:12.061Z,100927.40
2023-05-06T19:42:42.455Z,100929.73
2023-05-06T19:45:18.142Z,100925.03
2023-05-06T19:47:50.278Z,100920.36
2023-05-06T19:50:21.002Z,100920.78
2023-05-06T19:52:51.532Z,100929.50
2023-05-06T19:55:23.241Z,100930.40
2023-05-06T19:57:56.700Z,100923.03
2023-05-06T20:00:27.755Z,100928.47
2023-05-06T20:02:59.992Z,100932.89
2023-05-06T20:05:31.143Z,100931.91
2023-05-06T20:08:01.682Z,100931.76
2023-05-06T20:10:32.399Z,100929.97
2023-05-06T20:13:02.521Z,100937.27
2023-05-06T20:15:33.249Z,100946.20
2023-05-06T20:18:03.416Z,100945.45
2023-05-06T20:20:34.214Z,100949.25
2023-05-06T20:23:04.622Z,100951.98
2023-05-06T20:25:36.786Z,100957.42
2023-05-06T20:28:07.527Z,100957.25
2023-05-06T20:30:37.873Z,100958.94
2023-05-06T20:33:08.265Z,100956.09
2023-05-06T20:35:40.138Z,100961.25
2023-05-06T20:38:11.274Z,100959.01
2023-05-06T20:40:41.395Z,100967.69
2023-05-06T20:43:11.920Z,100955.77
2023-05-06T20:45:41.665Z,100958.87
2023-05-06T20:48:12.931Z,100961.99
2023-05-06T20:50:45.347Z,100962.42
2023-05-06T20:53:15.865Z,100967.17
2023-05-06T20:55:46.397Z,100962.86
2023-05-06T20:58:16.514Z,100962.25
2023-05-06T21:00:46.829Z,100972.37
2023-05-06T21:03:17.000Z,100970.72
2023-05-06T21:05:47.286Z,100972.80
2023-05-06T21:08:18.419Z,100968.70
2023-05-06T21:10:48.335Z,100974.27
2023-05-06T21:13:18.268Z,100976.14
2023-05-06T21:15:48.379Z,100980.89
2023-05-06T21:18:19.182Z,100982.73
2023-05-06T21:20:49.826Z,100987.28
2023-05-06T21:23:20.358Z,100990.16
2023-05-06T21:25:50.278Z,100984.20
2023-05-06T21:28:19.987Z,100986.07
2023-05-06T21:30:50.114Z,100983.39
2023-05-06T21:33:20.834Z,100977.62
2023-05-06T21:35:50.944Z,100977.02
2023-05-06T21:38:21.477Z,100975.18
2023-05-06T21:40:51.592Z,100977.25
2023-05-06T21:43:22.529Z,100978.48
2023-05-06T21:45:52.884Z,100986.14
2023-05-06T21:48:22.974Z,100977.50
2023-05-06T21:50:57.596Z,100980.38
2023-05-06T21:53:28.336Z,100982.45
2023-05-06T21:55:58.239Z,100984.52
2023-05-06T21:58:27.954Z,100980.62
2023-05-06T22:00:57.867Z,100980.62
2023-05-06T22:03:28.903Z,100976.53
2023-05-06T22:05:59.474Z,100974.28
2023-05-06T22:08:29.869Z,100978.19
2023-05-06T22:10:59.980Z,100979.45
2023-05-06T22:13:30.502Z,100968.33
2023-05-06T22:16:01.106Z,100970.80
2023-05-06T22:18:31.559Z,100962.59
2023-05-06T22:21:02.720Z,100957.23
2023-05-06T22:23:33.246Z,100972.69
2023-05-06T22:26:03.977Z,100976.59
2023-05-06T22:28:34.890Z,100975.98
2023-05-06T22:31:05.893Z,100975.98
2023-05-06T22:33:36.168Z,100979.09
2023-05-06T22:36:08.489Z,100977.67
2023-05-06T22:38:38.236Z,100977.25
2023-05-06T22:41:08.368Z,100976.87
2023-05-06T22:43:38.272Z,100979.13
2023-05-06T22:46:08.256Z,100977.70
2023-05-06T22:48:38.879Z,100977.30
2023-05-06T22:51:08.888Z,100977.68
2023-05-06T22:53:39.769Z,100984.48
2023-05-06T22:56:10.909Z,100983.25
2023-05-06T22:58:41.027Z,100976.91
2023-05-06T23:01:11.578Z,100982.67
2023-05-06T23:03:41.706Z,100986.17
2023-05-06T23:06:11.796Z,100978.77
2023-05-06T23:08:42.525Z,100979.81
2023-05-06T23:11:13.256Z,100984.73
2023-05-06T23:13:43.792Z,100988.05
2023-05-06T23:16:14.309Z,100987.01
2023-05-06T23:18:44.889Z,100979.81
2023-05-06T23:21:14.681Z,100982.50
2023-05-06T23:23:44.873Z,100979.81
2023-05-06T23:26:15.607Z,100982.27
2023-05-06T23:28:45.719Z,100974.27
2023-05-06T23:31:16.915Z,100983.10
2023-05-06T23:33:46.742Z,100982.27
2023-05-06T23:36:17.513Z,100975.26
2023-05-06T23:38:47.839Z,100979.58
2023-05-06T23:41:18.769Z,100983.24
2023-05-06T23:43:49.299Z,100986.72
2023-05-06T23:46:20.874Z,100983.17
2023-05-06T23:48:50.647Z,100982.55
2023-05-06T23:51:20.684Z,100987.01
2023-05-06T23:53:50.800Z,100978.37
2023-05-06T23:56:21.320Z,100978.14
2023-05-06T23:58:52.064Z,100979.13
